createdAt,value
2022-11-30T00:01:28.480Z,25.33
2022-11-30T00:03:57.278Z,28.08
2022-11-30T00:06:26.448Z,28.92
2022-11-30T00:08:55.142Z,23.70
2022-11-30T00:11:24.653Z,25.25
2022-11-30T00:13:53.422Z,26.42
2022-11-30T00:16:23.836Z,26.73
2022-11-30T00:18:52.588Z,25.48
2022-11-30T00:21:21.504Z,24.85
2022-11-30T00:23:50.404Z,26.55
2022-11-30T00:26:22.403Z,24.00
2022-11-30T00:28:51.145Z,26.48
2022-11-30T00:31:20.969Z,25.75
2022-11-30T00:33:51.079Z,26.55
2022-11-30T00:36:21.162Z,26.00
2022-11-30T00:38:50.074Z,25.85
2022-11-30T00:41:19.070Z,24.67
2022-11-30T00:43:47.891Z,24.35
2022-11-30T00:46:16.450Z,27.45
2022-11-30T00:48:45.113Z,26.60
2022-11-30T00:51:15.036Z,25.50
2022-11-30T00:53:44.083Z,26.45
2022-11-30T00:56:12.892Z,25.95
2022-11-30T00:58:41.481Z,25.38
2022-11-30T01:01:10.241Z,22.63
2022-11-30T01:03:38.933Z,26.17
2022-11-30T01:06:08.107Z,24.25
2022-11-30T01:08:38.075Z,24.17
2022-11-30T01:11:08.813Z,22.27
2022-11-30T01:13:37.406Z,24.37
2022-11-30T01:16:10.536Z,26.83
2022-11-30T01:18:39.380Z,25.80
2022-11-30T01:21:08.655Z,26.00
2022-11-30T01:23:38.672Z,25.88
2022-11-30T01:26:07.312Z,29.63
2022-11-30T01:28:36.057Z,28.55
2022-11-30T01:31:05.640Z,26.27
2022-11-30T01:33:34.414Z,24.25
2022-11-30T01:36:03.618Z,26.88
2022-11-30T01:38:35.811Z,26.35
2022-11-30T01:41:06.329Z,31.30
2022-11-30T01:43:41.971Z,24.85
2022-11-30T01:46:19.870Z,27.10
2022-11-30T01:48:49.957Z,26.05
2022-11-30T01:51:18.570Z,26.85
2022-11-30T01:53:47.324Z,28.50
2022-11-30T01:56:18.184Z,27.30
2022-11-30T01:58:46.755Z,26.63
2022-11-30T02:01:15.275Z,28.52
2022-11-30T02:03:48.343Z,29.05
2022-11-30T02:06:17.200Z,27.77
2022-11-30T02:08:45.852Z,29.98
2022-11-30T02:11:16.475Z,28.30
2022-11-30T02:13:58.575Z,29.58
2022-11-30T02:16:29.456Z,30.42
2022-11-30T02:19:02.278Z,30.05
2022-11-30T02:21:34.901Z,29.45
2022-11-30T02:24:22.342Z,30.23
2022-11-30T02:26:56.585Z,27.52
2022-11-30T02:29:27.128Z,31.20
2022-11-30T02:31:57.422Z,29.95
2022-11-30T02:34:28.780Z,31.35
2022-11-30T02:36:57.582Z,33.10
2022-11-30T02:39:26.061Z,29.75
2022-11-30T02:41:54.632Z,29.70
2022-11-30T02:44:23.649Z,30.70
2022-11-30T02:47:00.714Z,31.02
2022-11-30T02:49:33.236Z,33.97
2022-11-30T02:52:02.781Z,34.58
2022-11-30T02:54:31.310Z,29.45
2022-11-30T02:57:00.031Z,32.03
2022-11-30T02:59:28.711Z,32.47
2022-11-30T03:01:58.704Z,31.38
2022-11-30T03:04:27.435Z,31.70
2022-11-30T03:06:56.025Z,30.27
2022-11-30T03:09:24.516Z,30.65
2022-11-30T03:11:53.086Z,29.42
2022-11-30T03:14:21.563Z,30.80
2022-11-30T03:16:50.144Z,32.05
2022-11-30T03:19:20.613Z,31.48
2022-11-30T03:21:49.210Z,27.98
2022-11-30T03:24:17.741Z,28.40
2022-11-30T03:26:46.344Z,25.90
2022-11-30T03:29:14.904Z,26.63
2022-11-30T03:31:43.508Z,26.05
2022-11-30T03:34:12.292Z,27.48
2022-11-30T03:36:42.213Z,25.30
2022-11-30T03:39:10.760Z,24.95
2022-11-30T03:41:39.296Z,26.40
2022-11-30T03:44:07.860Z,24.30
2022-11-30T03:46:36.463Z,22.52
2022-11-30T03:49:05.195Z,24.15
2022-11-30T03:51:33.778Z,24.95
2022-11-30T03:54:03.751Z,22.13
2022-11-30T03:56:32.450Z,23.48
2022-11-30T03:59:00.947Z,22.52
2022-11-30T04:01:29.756Z,22.55
2022-11-30T04:03:58.380Z,27.35
2022-11-30T04:06:27.155Z,26.65
2022-11-30T04:08:55.770Z,25.50
2022-11-30T04:11:25.758Z,26.25
2022-11-30T04:13:54.307Z,25.80
2022-11-30T04:16:22.994Z,24.85
2022-11-30T04:18:51.617Z,26.45
2022-11-30T04:21:20.135Z,29.50
2022-11-30T04:23:48.772Z,31.30
2022-11-30T04:26:17.937Z,28.02
2022-11-30T04:28:47.851Z,27.77
2022-11-30T04:31:16.575Z,28.63
2022-11-30T04:33:45.125Z,27.48
2022-11-30T04:36:17.878Z,30.02
2022-11-30T04:38:46.449Z,30.00
2022-11-30T04:41:15.167Z,29.35
2022-11-30T04:43:43.753Z,28.48
2022-11-30T04:46:13.739Z,28.58
2022-11-30T04:48:42.414Z,32.30
2022-11-30T04:51:11.232Z,31.85
2022-11-30T04:53:40.186Z,29.70
2022-11-30T04:56:08.763Z,31.08
2022-11-30T04:58:38.717Z,27.75
2022-11-30T05:01:07.648Z,31.52
2022-11-30T05:03:37.695Z,29.73
2022-11-30T05:06:06.435Z,26.23
2022-11-30T05:08:35.017Z,29.10
2022-11-30T05:11:03.563Z,31.17
2022-11-30T05:13:32.153Z,29.27
2022-11-30T05:16:00.789Z,28.52
2022-11-30T05:18:31.662Z,26.88
2022-11-30T05:21:01.605Z,27.65
2022-11-30T05:23:30.466Z,25.17
2022-11-30T05:25:59.010Z,28.33
2022-11-30T05:28:27.638Z,27.40
2022-11-30T05:30:56.155Z,26.58
2022-11-30T05:33:24.834Z,28.73
2022-11-30T05:35:53.339Z,27.73
2022-11-30T05:38:23.832Z,26.58
2022-11-30T05:40:52.684Z,27.80
2022-11-30T05:43:21.320Z,25.02
2022-11-30T05:45:49.838Z,29.75
2022-11-30T05:48:18.446Z,25.30
2022-11-30T05:50:46.962Z,25.27
2022-11-30T05:53:15.554Z,24.38
2022-11-30T05:55:45.495Z,25.95
2022-11-30T05:58:14.244Z,26.02
2022-11-30T06:00:42.745Z,26.80
2022-11-30T06:03:11.412Z,26.27
2022-11-30T06:05:40.074Z,22.58
2022-11-30T06:08:08.599Z,22.92
2022-11-30T06:10:38.028Z,23.40
2022-11-30T06:13:10.094Z,25.85
2022-11-30T06:15:38.726Z,23.63
2022-11-30T06:18:07.666Z,26.23
2022-11-30T06:20:36.260Z,22.63
2022-11-30T06:23:04.938Z,28.48
2022-11-30T06:25:33.561Z,24.60
2022-11-30T06:28:02.216Z,25.15
2022-11-30T06:30:32.113Z,25.27
2022-11-30T06:33:00.711Z,26.60
2022-11-30T06:35:29.313Z,23.83
2022-11-30T06:38:00.481Z,25.00
2022-11-30T06:40:29.219Z,21.98
2022-11-30T06:42:57.696Z,25.45
2022-11-30T06:45:26.350Z,23.02
2022-11-30T06:47:57.765Z,26.40
2022-11-30T06:50:26.404Z,22.65
2022-11-30T06:52:55.855Z,20.63
2022-11-30T06:55:24.724Z,22.73
2022-11-30T06:57:53.234Z,22.80
2022-11-30T07:00:22.134Z,20.58
2022-11-30T07:02:50.669Z,24.70
2022-11-30T07:05:20.566Z,23.52
2022-11-30T07:07:49.117Z,21.83
2022-11-30T07:10:20.217Z,22.17
2022-11-30T07:12:49.101Z,22.38
2022-11-30T07:15:17.745Z,20.58
2022-11-30T07:17:46.276Z,21.10
2022-11-30T07:20:15.010Z,21.27
2022-11-30T07:22:44.891Z,23.48
2022-11-30T07:25:31.264Z,20.02
2022-11-30T07:27:59.797Z,19.92
2022-11-30T07:30:28.379Z,21.05
2022-11-30T07:32:56.944Z,22.33
2022-11-30T07:35:25.527Z,20.33
2022-11-30T07:37:55.455Z,20.85
2022-11-30T07:40:24.046Z,23.23
2022-11-30T07:42:56.949Z,20.60
2022-11-30T07:45:25.500Z,22.98
2022-11-30T07:47:54.897Z,21.60
2022-11-30T07:50:27.061Z,21.67
2022-11-30T07:52:57.029Z,22.45
2022-11-30T07:55:25.624Z,22.30
2022-11-30T07:57:54.893Z,25.17
2022-11-30T08:00:23.472Z,21.95
2022-11-30T08:02:52.312Z,24.63
2022-11-30T08:05:20.977Z,23.92
2022-11-30T08:07:52.497Z,23.60
2022-11-30T08:12:51.111Z,23.33
2022-11-30T08:15:21.346Z,22.77
2022-11-30T08:17:55.143Z,26.10
2022-11-30T08:20:24.337Z,23.55
2022-11-30T08:22:52.934Z,25.70
2022-11-30T08:25:21.589Z,22.25
2022-11-30T08:27:51.460Z,24.40
2022-11-30T08:30:20.027Z,24.15
2022-11-30T08:32:48.585Z,24.10
2022-11-30T08:35:17.152Z,26.40
2022-11-30T08:37:45.750Z,28.45
2022-11-30T08:40:14.610Z,24.83
2022-11-30T08:42:43.113Z,26.77
2022-11-30T08:45:13.372Z,25.02
2022-11-30T08:47:41.955Z,24.33
2022-11-30T08:50:10.876Z,23.77
2022-11-30T08:52:39.417Z,24.13
2022-11-30T08:55:08.479Z,24.48
2022-11-30T08:57:37.055Z,24.88
2022-11-30T09:00:05.958Z,26.38
2022-11-30T09:02:35.918Z,25.85
2022-11-30T09:05:04.520Z,25.55
2022-11-30T09:07:33.489Z,23.80
2022-11-30T09:10:02.135Z,25.02
2022-11-30T09:12:30.689Z,23.73
2022-11-30T09:14:59.992Z,30.50
2022-11-30T09:17:28.691Z,28.67
2022-11-30T09:19:58.621Z,23.80
2022-11-30T09:22:27.258Z,25.98
2022-11-30T09:24:56.210Z,22.90
2022-11-30T09:27:30.200Z,26.63
2022-11-30T09:29:58.763Z,23.98
2022-11-30T09:32:27.435Z,22.73
2022-11-30T09:34:56.055Z,24.27
2022-11-30T09:37:25.960Z,22.88
2022-11-30T09:39:54.526Z,25.55
2022-11-30T09:42:34.864Z,24.48
2022-11-30T09:45:05.424Z,26.02
2022-11-30T09:47:40.280Z,24.60
2022-11-30T09:50:14.441Z,24.63
2022-11-30T09:52:46.105Z,22.55
2022-11-30T09:57:45.887Z,23.42
2022-11-30T10:00:16.000Z,23.48
2022-11-30T10:02:44.758Z,24.38
2022-11-30T10:05:15.066Z,25.15
2022-11-30T10:07:51.852Z,23.30
2022-11-30T10:10:33.354Z,23.42
2022-11-30T10:13:04.727Z,24.73
2022-11-30T10:15:39.007Z,19.45
2022-11-30T10:18:12.584Z,21.50
2022-11-30T10:20:48.528Z,22.25
2022-11-30T10:23:27.920Z,23.10
2022-11-30T10:25:58.176Z,21.13
2022-11-30T10:28:49.536Z,21.60
2022-11-30T10:31:18.801Z,22.17
2022-11-30T10:33:48.400Z,20.25
2022-11-30T10:36:27.285Z,19.23
2022-11-30T10:39:00.167Z,20.00
2022-11-30T10:41:31.393Z,22.45
2022-11-30T10:44:02.416Z,21.10
2022-11-30T10:46:33.114Z,21.10
2022-11-30T10:49:04.861Z,21.03
2022-11-30T10:51:34.217Z,19.08
2022-11-30T10:54:04.835Z,19.48
2022-11-30T10:56:33.362Z,19.83
2022-11-30T10:59:04.176Z,18.88
2022-11-30T11:01:34.753Z,18.55
2022-11-30T11:04:09.948Z,18.92
2022-11-30T11:06:41.106Z,20.08
2022-11-30T11:12:04.300Z,18.48
2022-11-30T11:14:37.730Z,18.55
2022-11-30T11:17:07.765Z,20.17
2022-11-30T11:19:37.916Z,18.77
2022-11-30T11:22:08.552Z,19.80
2022-11-30T11:24:37.707Z,18.10
2022-11-30T11:27:07.623Z,19.27
2022-11-30T11:29:37.096Z,20.10
2022-11-30T11:32:26.471Z,17.17
2022-11-30T11:34:55.347Z,18.48
2022-11-30T11:37:26.328Z,18.17
2022-11-30T11:40:02.602Z,16.02
2022-11-30T11:42:34.065Z,18.50
2022-11-30T11:45:03.974Z,15.77
2022-11-30T11:47:38.452Z,17.70
2022-11-30T11:50:57.741Z,16.98
2022-11-30T11:53:22.952Z,15.40
2022-11-30T11:55:52.836Z,17.95
2022-11-30T11:58:26.532Z,17.13
2022-11-30T12:01:10.823Z,17.25
2022-11-30T12:03:47.461Z,16.77
2022-11-30T12:06:17.660Z,18.52
2022-11-30T12:08:48.525Z,17.25
2022-11-30T12:11:20.106Z,20.17
2022-11-30T12:16:26.608Z,21.10
2022-11-30T12:18:58.214Z,20.30
2022-11-30T12:24:00.795Z,19.70
2022-11-30T12:26:32.722Z,21.08
2022-11-30T12:31:35.136Z,23.42
2022-11-30T12:34:09.064Z,19.00
2022-11-30T12:36:46.805Z,22.95
2022-11-30T12:39:18.105Z,23.90
2022-11-30T12:41:51.515Z,22.90
2022-11-30T12:44:29.182Z,22.08
2022-11-30T12:47:02.705Z,21.17
2022-11-30T12:49:39.314Z,21.92
2022-11-30T12:52:14.318Z,21.50
2022-11-30T12:54:45.920Z,21.67
2022-11-30T12:57:18.240Z,21.50
2022-11-30T12:59:49.551Z,21.35
2022-11-30T13:02:40.208Z,20.60
2022-11-30T13:05:09.943Z,21.60
2022-11-30T13:07:41.376Z,21.27
2022-11-30T13:10:18.701Z,20.88
2022-11-30T13:12:50.908Z,19.38
2022-11-30T13:15:20.255Z,20.58
2022-11-30T13:17:50.869Z,21.02
2022-11-30T13:20:23.136Z,20.20
2022-11-30T13:22:55.385Z,20.95
2022-11-30T13:25:59.827Z,19.83
2022-11-30T13:28:19.978Z,20.55
2022-11-30T13:30:52.406Z,19.00
2022-11-30T13:33:38.743Z,18.65
2022-11-30T13:36:22.902Z,18.27
2022-11-30T13:39:10.215Z,18.98
2022-11-30T13:41:39.173Z,19.30
2022-11-30T13:44:07.944Z,18.60
2022-11-30T13:46:36.643Z,17.90
2022-11-30T13:49:13.142Z,21.48
2022-11-30T13:51:43.069Z,18.35
2022-11-30T13:54:32.486Z,18.17
2022-11-30T13:57:01.065Z,18.63
2022-11-30T13:59:41.330Z,15.77
2022-11-30T14:05:25.655Z,16.30
2022-11-30T14:08:12.948Z,15.40
2022-11-30T14:10:43.612Z,18.80
2022-11-30T14:13:31.785Z,17.30
2022-11-30T14:16:01.723Z,16.63
2022-11-30T14:18:40.353Z,17.27
2022-11-30T14:21:19.887Z,20.15
2022-11-30T14:23:59.452Z,19.25
2022-11-30T14:26:32.172Z,17.88
2022-11-30T14:29:04.553Z,18.38
2022-11-30T14:31:35.438Z,19.02
2022-11-30T14:34:06.331Z,17.95
2022-11-30T14:36:36.379Z,18.35
2022-11-30T14:39:05.566Z,19.88
2022-11-30T14:41:35.451Z,18.75
2022-11-30T14:44:06.246Z,20.88
2022-11-30T14:46:36.250Z,19.33
2022-11-30T14:49:08.477Z,21.98
2022-11-30T14:51:38.753Z,21.08
2022-11-30T14:54:12.515Z,21.23
2022-11-30T14:56:45.207Z,21.13
2022-11-30T14:59:24.026Z,23.63
2022-11-30T15:01:57.343Z,22.92
2022-11-30T15:04:27.804Z,22.27
2022-11-30T15:06:57.068Z,24.50
2022-11-30T15:09:27.519Z,22.40
2022-11-30T15:11:57.564Z,21.70
2022-11-30T15:14:26.301Z,21.83
2022-11-30T15:16:55.687Z,23.30
2022-11-30T15:19:25.049Z,24.70
2022-11-30T15:21:54.133Z,26.35
2022-11-30T15:24:23.166Z,24.40
2022-11-30T15:26:54.856Z,24.73
2022-11-30T15:31:54.003Z,21.67
2022-11-30T15:34:23.938Z,23.35
2022-11-30T15:36:55.563Z,24.17
2022-11-30T15:41:55.277Z,21.45
2022-11-30T15:44:25.116Z,24.52
2022-11-30T15:46:59.687Z,23.80
2022-11-30T15:49:29.161Z,23.63
2022-11-30T15:52:04.395Z,21.75
2022-11-30T15:54:45.594Z,22.00
2022-11-30T15:57:14.310Z,23.45
2022-11-30T15:59:42.942Z,26.70
2022-11-30T16:02:28.287Z,25.88
2022-11-30T16:05:13.610Z,26.13
2022-11-30T16:07:50.147Z,31.58
2022-11-30T16:10:20.445Z,47.30
2022-11-30T16:12:50.434Z,80.03
2022-11-30T16:15:20.042Z,85.22
2022-11-30T16:17:49.968Z,103.07
2022-11-30T16:20:20.934Z,103.75
2022-11-30T16:22:50.621Z,94.30
2022-11-30T16:25:20.833Z,92.32
2022-11-30T16:27:49.784Z,62.15
2022-11-30T16:30:19.242Z,67.35
2022-11-30T16:32:47.864Z,51.13
2022-11-30T16:35:21.752Z,47.83
2022-11-30T16:37:50.449Z,45.10
2022-11-30T16:40:19.471Z,32.13
2022-11-30T16:42:50.047Z,35.47
2022-11-30T16:45:19.754Z,30.80
2022-11-30T16:47:48.330Z,33.95
2022-11-30T16:50:17.140Z,28.45
2022-11-30T16:52:47.258Z,32.08
2022-11-30T16:55:16.426Z,28.25
2022-11-30T16:57:45.039Z,30.30
2022-11-30T17:00:15.683Z,29.23
2022-11-30T17:02:46.861Z,32.53
2022-11-30T17:05:16.173Z,29.75
2022-11-30T17:07:45.017Z,30.80
2022-11-30T17:10:15.241Z,27.48
2022-11-30T17:12:43.821Z,28.15
2022-11-30T17:15:16.492Z,29.50
2022-11-30T17:17:45.362Z,29.95
2022-11-30T17:20:14.467Z,25.92
2022-11-30T17:22:43.970Z,26.58
2022-11-30T17:25:16.106Z,29.80
2022-11-30T17:27:44.805Z,33.75
2022-11-30T17:30:14.068Z,30.42
2022-11-30T17:32:42.723Z,32.45
2022-11-30T17:35:11.838Z,30.13
2022-11-30T17:37:40.591Z,27.85
2022-11-30T17:40:12.808Z,28.85
2022-11-30T17:42:42.954Z,28.02
2022-11-30T17:45:12.039Z,31.48
2022-11-30T17:47:40.554Z,33.90
2022-11-30T17:50:10.062Z,31.30
2022-11-30T17:52:38.653Z,28.98
2022-11-30T17:55:07.704Z,29.10
2022-11-30T17:57:38.297Z,29.60
2022-11-30T18:00:09.693Z,27.35
2022-11-30T18:02:38.339Z,31.65
2022-11-30T18:05:07.281Z,27.75
2022-11-30T18:07:36.015Z,25.98
2022-11-30T18:10:04.596Z,27.35
2022-11-30T18:12:34.086Z,29.20
2022-11-30T18:15:02.664Z,28.63
2022-11-30T18:17:32.776Z,27.13
2022-11-30T18:20:01.361Z,26.58
2022-11-30T18:22:30.105Z,26.60
2022-11-30T18:24:58.667Z,24.40
2022-11-30T18:27:27.543Z,24.20
2022-11-30T18:29:56.208Z,26.33
2022-11-30T18:32:24.778Z,25.98
2022-11-30T18:34:54.742Z,24.85
2022-11-30T18:37:23.395Z,26.77
2022-11-30T18:39:51.971Z,28.05
2022-11-30T18:42:21.126Z,26.63
2022-11-30T18:44:50.132Z,38.53
2022-11-30T18:47:19.014Z,69.07
2022-11-30T18:49:47.507Z,143.98
2022-11-30T18:52:17.490Z,132.90
2022-11-30T18:54:46.454Z,131.52
2022-11-30T18:57:15.320Z,122.03
2022-11-30T18:59:43.904Z,121.95
2022-11-30T19:02:12.494Z,88.40
2022-11-30T19:04:41.143Z,73.65
2022-11-30T19:07:09.764Z,99.97
2022-11-30T19:09:39.675Z,121.15
2022-11-30T19:12:08.610Z,237.00
2022-11-30T19:14:37.177Z,176.18
2022-11-30T19:17:05.987Z,139.15
2022-11-30T19:19:34.578Z,237.52
2022-11-30T19:22:04.071Z,122.20
2022-11-30T19:24:32.650Z,107.35
2022-11-30T19:27:02.561Z,88.72
2022-11-30T19:29:31.086Z,79.75
2022-11-30T19:32:02.400Z,70.82
2022-11-30T19:34:31.142Z,72.15
2022-11-30T19:36:59.712Z,64.43
2022-11-30T19:39:28.289Z,61.05
2022-11-30T19:41:57.012Z,54.25
2022-11-30T19:44:26.988Z,52.95
2022-11-30T19:46:55.551Z,47.70
2022-11-30T19:49:24.108Z,44.65
2022-11-30T19:51:53.059Z,41.53
2022-11-30T19:54:21.605Z,37.70
2022-11-30T19:56:50.249Z,37.95
2022-11-30T19:59:18.776Z,35.50
2022-11-30T20:01:48.885Z,36.58
2022-11-30T20:04:17.745Z,36.72
2022-11-30T20:06:46.305Z,38.72
2022-11-30T20:09:14.859Z,37.55
2022-11-30T20:11:43.557Z,33.28
2022-11-30T20:14:16.600Z,34.83
2022-11-30T20:16:45.143Z,34.60
2022-11-30T20:19:15.037Z,35.70
2022-11-30T20:21:44.050Z,36.17
2022-11-30T20:24:13.559Z,35.47
2022-11-30T20:26:43.038Z,39.90
2022-11-30T20:29:14.647Z,38.33
2022-11-30T20:34:11.762Z,40.00
2022-11-30T20:36:41.809Z,42.60
2022-11-30T20:39:11.809Z,41.90
2022-11-30T20:41:40.395Z,38.50
2022-11-30T20:44:08.966Z,41.13
2022-11-30T20:46:38.024Z,39.08
2022-11-30T20:49:12.892Z,38.17
2022-11-30T20:51:42.834Z,42.60
2022-11-30T20:54:12.463Z,36.67
2022-11-30T20:56:41.609Z,36.40
2022-11-30T20:59:11.011Z,36.22
2022-11-30T21:01:41.981Z,35.13
2022-11-30T21:04:10.706Z,37.20
2022-11-30T21:06:39.321Z,34.92
2022-11-30T21:09:09.280Z,33.67
2022-11-30T21:11:37.790Z,34.65
2022-11-30T21:14:06.310Z,33.72
2022-11-30T21:16:35.824Z,35.42
2022-11-30T21:19:04.651Z,31.60
2022-11-30T21:21:34.227Z,32.20
2022-11-30T21:24:03.758Z,34.08
2022-11-30T21:26:34.856Z,32.78
2022-11-30T21:29:04.216Z,32.55
2022-11-30T21:31:33.028Z,31.95
2022-11-30T21:34:01.845Z,30.17
2022-11-30T21:36:30.480Z,27.88
2022-11-30T21:39:05.146Z,31.65
2022-11-30T21:41:36.140Z,35.53
2022-11-30T21:44:04.861Z,27.98
2022-11-30T21:46:33.597Z,32.75
2022-11-30T21:49:02.859Z,32.30
2022-11-30T21:51:32.731Z,34.67
2022-11-30T21:54:02.013Z,35.95
2022-11-30T21:56:31.359Z,34.30
2022-11-30T21:59:01.324Z,34.72
2022-11-30T22:01:30.919Z,33.28
2022-11-30T22:04:00.135Z,37.22
2022-11-30T22:06:29.669Z,34.33
2022-11-30T22:09:02.746Z,35.72
2022-11-30T22:11:31.969Z,33.00
2022-11-30T22:14:01.849Z,35.13
2022-11-30T22:16:35.784Z,37.35
2022-11-30T22:19:07.464Z,32.03
2022-11-30T22:21:36.143Z,34.95
2022-11-30T22:24:15.428Z,98.45
2022-11-30T22:26:50.075Z,156.80
2022-11-30T22:29:21.360Z,167.23
2022-11-30T22:31:51.052Z,230.98
2022-11-30T22:34:19.710Z,142.25
2022-11-30T22:36:48.234Z,126.55
2022-11-30T22:39:17.604Z,92.60
2022-11-30T22:41:51.265Z,86.07
2022-11-30T22:44:24.770Z,146.77
2022-11-30T22:46:53.500Z,202.10
2022-11-30T22:49:22.336Z,194.82
2022-11-30T22:51:51.296Z,311.45
2022-11-30T22:54:20.341Z,218.77
2022-11-30T22:56:48.887Z,170.07
2022-11-30T22:59:17.630Z,143.10
2022-11-30T23:01:48.238Z,111.43
2022-11-30T23:04:17.510Z,90.85
2022-11-30T23:06:47.038Z,70.80
2022-11-30T23:09:16.549Z,68.65
2022-11-30T23:11:45.422Z,55.80
2022-11-30T23:14:16.197Z,54.95
2022-11-30T23:16:45.170Z,45.37
2022-11-30T23:19:15.311Z,42.67
2022-11-30T23:21:45.829Z,41.70
2022-11-30T23:24:16.418Z,40.80
2022-11-30T23:26:45.275Z,37.05
2022-11-30T23:29:15.096Z,40.03
2022-11-30T23:31:44.268Z,38.53
2022-11-30T23:34:14.150Z,34.75
2022-11-30T23:36:44.132Z,35.75
2022-11-30T23:39:13.746Z,36.95
2022-11-30T23:41:42.777Z,35.85
2022-11-30T23:44:11.969Z,35.60
2022-11-30T23:46:40.578Z,31.92
2022-11-30T23:49:09.368Z,34.22
2022-11-30T23:51:38.224Z,34.75
2022-11-30T23:54:08.163Z,37.65
2022-11-30T23:56:36.688Z,37.33
2022-11-30T23:59:05.969Z,34.72
